Time;durP1;ratioP1;P1;durP2;ratioP2;P2;SDS_P1;SDS_P2;PMS_P1;PMS_P2;Temp;Humidity;BMP_temperature;BMP_pressure;BME280_temperature;BME280_humidity;BME280_pressure;Samples;Min_cycle;Max_cycle;Signal;HPM_P1;HPM_P2
2024/04/01 00:01:08;;;;;;;;;;;15.80;51.60;;;;;;5034160;28;19921;-74
2024/04/01 00:03:34;;;;;;;;;;;15.80;51.50;;;;;;5051084;28;20011;-77
2024/04/01 00:06:00;;;;;;;;;;;15.80;52.00;;;;;;5050811;28;19917;-71
2024/04/01 00:08:25;;;;;;;;;;;15.70;52.30;;;;;;5051009;28;20437;-76
2024/04/01 00:10:52;;;;;;;;;;;15.70;53.00;;;;;;5050069;28;20449;-76
2024/04/01 00:13:19;;;;;;;;;;;15.60;53.00;;;;;;5033963;28;19927;-71
2024/04/01 00:15:45;;;;;;;;;;;15.60;53.10;;;;;;5050550;28;19912;-71
2024/04/01 00:18:11;;;;;;;;;;;15.50;53.60;;;;;;5033899;28;20379;-76
2024/04/01 00:20:38;;;;;;;;;;;15.40;53.70;;;;;;5049914;28;19917;-71
2024/04/01 00:23:04;;;;;;;;;;;15.30;54.20;;;;;;5033948;28;20460;-71
2024/04/01 00:25:30;;;;;;;;;;;15.20;54.30;;;;;;5051369;28;20488;-71
2024/04/01 00:27:56;;;;;;;;;;;15.20;54.70;;;;;;5033787;28;19927;-73
2024/04/01 00:30:22;;;;;;;;;;;15.20;54.80;;;;;;5049703;28;19916;-71
2024/04/01 00:32:48;;;;;;;;;;;15.10;55.00;;;;;;5050310;28;19924;-77
2024/04/01 00:37:58;;;;;;;;;;;15.10;54.80;;;;;;5050556;28;20013;-71
2024/04/01 00:40:24;;;;;;;;;;;15.10;55.20;;;;;;5051371;28;20323;-71
2024/04/01 00:42:51;;;;;;;;;;;15.00;54.90;;;;;;5050853;28;20297;-71
2024/04/01 00:45:16;;;;;;;;;;;15.00;54.90;;;;;;5051780;28;19912;-71
2024/04/01 00:47:42;;;;;;;;;;;15.00;55.10;;;;;;5051089;28;20337;-71
2024/04/01 00:50:08;;;;;;;;;;;14.90;55.30;;;;;;5051387;28;20015;-71
2024/04/01 00:52:34;;;;;;;;;;;14.90;55.50;;;;;;5052085;28;20031;-76
2024/04/01 00:55:00;;;;;;;;;;;14.80;55.20;;;;;;5033331;28;19917;-76
2024/04/01 00:57:26;;;;;;;;;;;14.80;55.40;;;;;;5033200;28;20285;-76
2024/04/01 00:59:54;;;;;;;;;;;14.70;56.10;;;;;;5051442;28;19919;-76
2024/04/01 01:02:21;;;;;;;;;;;14.80;55.80;;;;;;5049469;28;19920;-76
2024/04/01 01:04:47;;;;;;;;;;;14.70;56.30;;;;;;5051083;28;19913;-76
2024/04/01 01:07:13;;;;;;;;;;;14.60;55.70;;;;;;5033939;28;19932;-76
2024/04/01 01:09:42;;;;;;;;;;;14.70;55.80;;;;;;5050645;28;20336;-72
2024/04/01 01:12:08;;;;;;;;;;;14.70;55.60;;;;;;5033355;28;20533;-71
2024/04/01 01:14:34;;;;;;;;;;;14.60;56.00;;;;;;5049828;28;19913;-76
2024/04/01 01:17:00;;;;;;;;;;;14.70;56.30;;;;;;5053804;28;19921;-76
2024/04/01 01:19:27;;;;;;;;;;;14.60;56.00;;;;;;5054957;28;20370;-76
2024/04/01 01:22:06;;;;;;;;;;;14.60;55.90;;;;;;5053355;28;19927;-71
2024/04/01 01:24:35;;;;;;;;;;;14.60;56.10;;;;;;5053577;28;19917;-76
2024/04/01 01:27:01;;;;;;;;;;;14.60;56.20;;;;;;5053591;28;19925;-75
2024/04/01 01:29:31;;;;;;;;;;;14.50;56.90;;;;;;5053617;28;20003;-71
2024/04/01 01:32:00;;;;;;;;;;;14.40;56.50;;;;;;5053087;28;19921;-71
2024/04/01 01:34:46;;;;;;;;;;;14.40;56.40;;;;;;5053668;28;19913;-71
2024/04/01 01:37:13;;;;;;;;;;;14.40;56.30;;;;;;5054685;28;19929;-72
2024/04/01 01:39:39;;;;;;;;;;;14.30;56.30;;;;;;5053510;28;19923;-74
2024/04/01 01:42:05;;;;;;;;;;;14.30;56.70;;;;;;5052920;28;20426;-76
2024/04/01 01:44:31;;;;;;;;;;;14.30;56.80;;;;;;5053677;28;20008;-71
2024/04/01 01:46:57;;;;;;;;;;;14.30;57.20;;;;;;5037298;28;20007;-75
2024/04/01 01:49:23;;;;;;;;;;;14.30;57.30;;;;;;5055238;28;19970;-71
2024/04/01 01:51:50;;;;;;;;;;;14.20;57.40;;;;;;5054734;28;19986;-71
2024/04/01 01:54:16;;;;;;;;;;;14.20;57.70;;;;;;5055125;28;20353;-71
2024/04/01 01:56:42;;;;;;;;;;;14.20;57.00;;;;;;5053923;28;19917;-76
2024/04/01 01:59:08;;;;;;;;;;;14.10;57.60;;;;;;5055157;28;19916;-71
2024/04/01 02:01:34;;;;;;;;;;;14.10;58.00;;;;;;5054601;28;20027;-71
2024/04/01 02:04:00;;;;;;;;;;;14.10;58.20;;;;;;5053509;28;19971;-71
2024/04/01 02:06:26;;;;;;;;;;;14.10;58.20;;;;;;5053684;28;20360;-76
2024/04/01 02:08:52;;;;;;;;;;;14.10;58.30;;;;;;5054826;28;19917;-76
2024/04/01 02:11:18;;;;;;;;;;;14.00;58.30;;;;;;5053132;28;19982;-71
2024/04/01 02:13:44;;;;;;;;;;;14.00;58.30;;;;;;5053614;28;19926;-76
2024/04/01 02:16:10;;;;;;;;;;;13.90;58.80;;;;;;5053387;28;20405;-76
2024/04/01 02:18:36;;;;;;;;;;;13.80;58.90;;;;;;5053399;28;20430;-74
2024/04/01 02:21:03;;;;;;;;;;;13.80;59.20;;;;;;5052615;28;20425;-76
2024/04/01 02:23:31;;;;;;;;;;;13.70;59.30;;;;;;5053865;28;19928;-76
2024/04/01 02:26:16;;;;;;;;;;;13.70;59.00;;;;;;5054307;28;19943;-76
2024/04/01 02:28:42;;;;;;;;;;;13.70;59.20;;;;;;5054818;28;19927;-76
2024/04/01 02:31:07;;;;;;;;;;;13.70;59.40;;;;;;5053752;28;19921;-73
2024/04/01 02:33:33;;;;;;;;;;;13.60;59.50;;;;;;5053282;28;19921;-71
2024/04/01 02:35:59;;;;;;;;;;;13.60;59.60;;;;;;5053545;28;20393;-71
2024/04/01 02:38:25;;;;;;;;;;;13.60;59.20;;;;;;5053952;28;19921;-76
2024/04/01 02:40:51;;;;;;;;;;;13.60;59.00;;;;;;5051487;28;19920;-71
2024/04/01 02:43:17;;;;;;;;;;;13.60;59.10;;;;;;5052282;28;20392;-75
2024/04/01 02:45:44;;;;;;;;;;;13.60;59.40;;;;;;5052104;28;19923;-71
2024/04/01 02:48:10;;;;;;;;;;;13.50;59.60;;;;;;5052396;28;19928;-76
2024/04/01 02:50:36;;;;;;;;;;;13.50;59.80;;;;;;5051425;28;20011;-76
2024/04/01 02:53:02;;;;;;;;;;;13.50;59.80;;;;;;5052200;28;20007;-71
2024/04/01 02:55:28;;;;;;;;;;;13.50;60.00;;;;;;5053230;28;19927;-76
2024/04/01 02:57:54;;;;;;;;;;;13.40;59.40;;;;;;5053547;28;19974;-76
2024/04/01 03:00:20;;;;;;;;;;;13.50;59.70;;;;;;5035398;28;19975;-71
2024/04/01 03:02:47;;;;;;;;;;;13.40;59.90;;;;;;5036122;28;20426;-75
2024/04/01 03:05:14;;;;;;;;;;;13.40;59.70;;;;;;5052301;28;19956;-76
2024/04/01 03:07:41;;;;;;;;;;;13.30;59.80;;;;;;5052652;28;20374;-76
2024/04/01 03:10:08;;;;;;;;;;;13.30;60.10;;;;;;5052021;28;20015;-71
2024/04/01 03:12:34;;;;;;;;;;;13.20;60.30;;;;;;5052505;28;19971;-76
2024/04/01 03:15:00;;;;;;;;;;;13.10;59.90;;;;;;5053398;28;19913;-76
2024/04/01 03:17:29;;;;;;;;;;;13.10;60.90;;;;;;5052282;28;19927;-75
2024/04/01 03:19:56;;;;;;;;;;;13.10;61.20;;;;;;5053259;28;19913;-72
2024/04/01 03:22:22;;;;;;;;;;;13.00;60.80;;;;;;5051583;28;19921;-71
2024/04/01 03:24:49;;;;;;;;;;;13.00;61.20;;;;;;5053387;28;20016;-71
2024/04/01 03:27:15;;;;;;;;;;;13.00;61.10;;;;;;5052200;28;20438;-76
2024/04/01 03:29:41;;;;;;;;;;;13.00;61.00;;;;;;5051406;28;19923;-71
2024/04/01 03:32:07;;;;;;;;;;;13.00;61.50;;;;;;5050792;28;20019;-71
2024/04/01 03:34:33;;;;;;;;;;;12.90;61.60;;;;;;5053039;28;19999;-76
2024/04/01 03:36:59;;;;;;;;;;;12.90;61.70;;;;;;5053290;28;20016;-76
2024/04/01 03:39:27;;;;;;;;;;;12.90;61.20;;;;;;5050387;28;19919;-71
2024/04/01 03:41:54;;;;;;;;;;;12.80;61.10;;;;;;5051864;28;19920;-71
2024/04/01 03:44:20;;;;;;;;;;;12.90;61.80;;;;;;5052221;28;19999;-76
2024/04/01 03:46:46;;;;;;;;;;;12.90;61.60;;;;;;5050980;28;20028;-72
2024/04/01 03:49:12;;;;;;;;;;;12.90;61.70;;;;;;5051022;28;19923;-76
2024/04/01 03:51:38;;;;;;;;;;;12.90;61.60;;;;;;5050257;28;19939;-76
2024/04/01 03:54:04;;;;;;;;;;;12.90;61.60;;;;;;5050769;28;19971;-76
2024/04/01 03:56:30;;;;;;;;;;;12.90;62.10;;;;;;5051823;28;19919;-76
2024/04/01 03:58:56;;;;;;;;;;;12.80;61.90;;;;;;5050433;28;19920;-76
2024/04/01 04:01:22;;;;;;;;;;;12.80;62.10;;;;;;5050085;28;19917;-71
2024/04/01 04:03:48;;;;;;;;;;;12.70;62.30;;;;;;5050575;28;19916;-76
2024/04/01 04:06:14;;;;;;;;;;;12.70;62.60;;;;;;5051894;28;19969;-71
2024/04/01 04:08:40;;;;;;;;;;;12.70;62.50;;;;;;5052452;28;20297;-76
2024/04/01 04:11:11;;;;;;;;;;;12.60;62.80;;;;;;5051466;28;19924;-71
2024/04/01 04:13:37;;;;;;;;;;;12.60;63.00;;;;;;5050667;28;19987;-71
2024/04/01 04:16:03;;;;;;;;;;;12.60;63.50;;;;;;5033904;28;20166;-76
2024/04/01 04:18:29;;;;;;;;;;;12.50;62.70;;;;;;5050734;28;19931;-76
2024/04/01 04:20:55;;;;;;;;;;;12.50;63.00;;;;;;5033201;28;19965;-76
2024/04/01 04:23:40;;;;;;;;;;;12.50;63.20;;;;;;5050753;28;19921;-71
2024/04/01 04:26:08;;;;;;;;;;;12.40;63.30;;;;;;5050152;28;20293;-71
2024/04/01 04:28:34;;;;;;;;;;;12.40;63.60;;;;;;5052070;28;19920;-76
2024/04/01 04:31:00;;;;;;;;;;;12.40;63.30;;;;;;5051125;28;19927;-76
2024/04/01 04:33:26;;;;;;;;;;;12.40;63.40;;;;;;5051961;28;19917;-76
2024/04/01 04:35:52;;;;;;;;;;;12.40;63.20;;;;;;5050187;28;19925;-76
2024/04/01 04:38:18;;;;;;;;;;;12.40;63.00;;;;;;5051925;28;20518;-71
2024/04/01 04:40:44;;;;;;;;;;;12.40;63.20;;;;;;5032833;28;19927;-71
2024/04/01 04:43:10;;;;;;;;;;;12.40;63.30;;;;;;5050444;28;19916;-77
2024/04/01 04:45:36;;;;;;;;;;;12.40;63.30;;;;;;5051271;28;19927;-71
2024/04/01 04:48:01;;;;;;;;;;;12.40;63.40;;;;;;5051215;28;19966;-71
2024/04/01 04:50:27;;;;;;;;;;;12.30;63.50;;;;;;5052829;28;19916;-71
2024/04/01 04:52:53;;;;;;;;;;;12.30;63.20;;;;;;5055722;28;20079;-71
2024/04/01 04:55:22;;;;;;;;;;;12.20;63.30;;;;;;5055407;28;19946;-71
2024/04/01 04:57:48;;;;;;;;;;;12.20;63.50;;;;;;5054268;28;19920;-75
2024/04/01 05:00:23;;;;;;;;;;;12.10;63.90;;;;;;5053997;28;20412;-76
2024/04/01 05:02:49;;;;;;;;;;;12.10;64.00;;;;;;5055569;28;20328;-71
2024/04/01 05:05:17;;;;;;;;;;;12.10;63.50;;;;;;5053908;28;20251;-76
2024/04/01 05:07:44;;;;;;;;;;;12.10;63.40;;;;;;5053961;28;19921;-71
2024/04/01 05:10:11;;;;;;;;;;;12.20;63.70;;;;;;5054662;28;19919;-76
2024/04/01 05:12:38;;;;;;;;;;;12.20;64.00;;;;;;5055462;28;20011;-72
2024/04/01 05:15:07;;;;;;;;;;;12.20;63.90;;;;;;5054777;28;19912;-71
2024/04/01 05:17:33;;;;;;;;;;;12.20;63.30;;;;;;5055388;28;19959;-71
2024/04/01 05:19:59;;;;;;;;;;;12.30;63.80;;;;;;5053907;28;19913;-74
2024/04/01 05:22:26;;;;;;;;;;;12.30;63.60;;;;;;5053533;28;19916;-76
2024/04/01 05:24:52;;;;;;;;;;;12.40;63.40;;;;;;5053527;28;19974;-71
2024/04/01 05:27:18;;;;;;;;;;;12.50;63.30;;;;;;5055056;28;19994;-71
2024/04/01 05:29:44;;;;;;;;;;;12.50;63.60;;;;;;5054857;28;19916;-76
2024/04/01 05:32:10;;;;;;;;;;;12.50;63.00;;;;;;5053035;28;19930;-76
2024/04/01 05:34:37;;;;;;;;;;;12.60;63.30;;;;;;5054535;28;20007;-71
2024/04/01 05:37:22;;;;;;;;;;;12.60;63.40;;;;;;5053534;28;19951;-71
2024/04/01 05:39:50;;;;;;;;;;;12.70;63.90;;;;;;5054583;28;19962;-76
2024/04/01 05:42:16;;;;;;;;;;;12.70;63.90;;;;;;5052752;28;19916;-71
2024/04/01 05:44:41;;;;;;;;;;;12.70;63.80;;;;;;5054678;28;19974;-76
2024/04/01 05:47:08;;;;;;;;;;;12.80;63.60;;;;;;5053213;28;19920;-71
2024/04/01 05:49:34;;;;;;;;;;;12.90;63.30;;;;;;5053097;28;19920;-75
2024/04/01 05:52:00;;;;;;;;;;;13.00;63.20;;;;;;5053896;28;19951;-76
2024/04/01 05:54:26;;;;;;;;;;;13.00;62.80;;;;;;5052925;28;19947;-72
2024/04/01 05:56:52;;;;;;;;;;;13.10;63.10;;;;;;5054256;28;20373;-76
2024/04/01 05:59:18;;;;;;;;;;;13.20;62.70;;;;;;5053194;28;19916;-71
2024/04/01 06:01:44;;;;;;;;;;;13.30;62.90;;;;;;5053009;28;20003;-76
2024/04/01 06:04:10;;;;;;;;;;;13.30;62.70;;;;;;5054213;28;19958;-71
2024/04/01 06:06:35;;;;;;;;;;;13.40;62.90;;;;;;5054059;28;19923;-76
2024/04/01 06:09:01;;;;;;;;;;;13.40;62.90;;;;;;5054055;28;19916;-71
2024/04/01 06:11:28;;;;;;;;;;;13.50;63.40;;;;;;5053498;28;19917;-71
2024/04/01 06:13:54;;;;;;;;;;;13.60;63.10;;;;;;5035994;28;19917;-76
2024/04/01 06:16:20;;;;;;;;;;;13.70;63.00;;;;;;5052688;28;19999;-76
2024/04/01 06:18:45;;;;;;;;;;;13.80;62.90;;;;;;5053949;28;19925;-76
2024/04/01 06:21:11;;;;;;;;;;;13.90;62.70;;;;;;5052113;28;19923;-71
2024/04/01 06:23:37;;;;;;;;;;;14.00;63.20;;;;;;5054389;28;19995;-76
2024/04/01 06:26:03;;;;;;;;;;;14.10;63.00;;;;;;5052191;28;19927;-76
2024/04/01 06:28:29;;;;;;;;;;;14.20;62.70;;;;;;5052763;28;19920;-77
2024/04/01 06:30:55;;;;;;;;;;;14.30;62.40;;;;;;5051761;28;19927;-76
2024/04/01 06:33:21;;;;;;;;;;;14.40;62.20;;;;;;5052669;28;20003;-72
2024/04/01 06:35:47;;;;;;;;;;;14.60;61.70;;;;;;5053703;28;20403;-77
2024/04/01 06:38:12;;;;;;;;;;;14.80;61.40;;;;;;5054027;28;19959;-77
2024/04/01 06:40:38;;;;;;;;;;;15.00;61.40;;;;;;5034839;28;19927;-76
2024/04/01 06:43:04;;;;;;;;;;;15.20;61.60;;;;;;5052469;28;19917;-76
2024/04/01 06:45:30;;;;;;;;;;;15.40;60.50;;;;;;5053319;28;20064;-76
2024/04/01 06:47:56;;;;;;;;;;;15.60;60.10;;;;;;5035595;28;20012;-76
2024/04/01 06:50:22;;;;;;;;;;;15.70;60.30;;;;;;5051886;28;20213;-77
2024/04/01 06:52:48;;;;;;;;;;;15.90;60.40;;;;;;5052115;28;19917;-71
2024/04/01 06:55:14;;;;;;;;;;;16.10;60.40;;;;;;5052010;28;19921;-71
2024/04/01 06:57:41;;;;;;;;;;;16.30;59.90;;;;;;5053097;28;19921;-71
2024/04/01 07:00:07;;;;;;;;;;;16.40;59.10;;;;;;5051425;28;20011;-72
2024/04/01 07:02:34;;;;;;;;;;;16.70;59.00;;;;;;5051951;28;20281;-71
2024/04/01 07:05:00;;;;;;;;;;;16.90;58.80;;;;;;5051859;28;20007;-72
2024/04/01 07:07:26;;;;;;;;;;;17.10;58.60;;;;;;5052897;28;19921;-77
2024/04/01 07:09:52;;;;;;;;;;;17.30;58.00;;;;;;5053143;28;19971;-77
2024/04/01 07:12:17;;;;;;;;;;;17.50;57.60;;;;;;5051368;28;20293;-76
2024/04/01 07:14:43;;;;;;;;;;;17.70;57.40;;;;;;5052442;28;20061;-77
2024/04/01 07:17:09;;;;;;;;;;;17.90;57.00;;;;;;5063650;28;19931;-77
2024/04/01 07:19:35;;;;;;;;;;;18.10;56.30;;;;;;5063609;28;19924;-71
2024/04/01 07:22:01;;;;;;;;;;;18.30;56.00;;;;;;5052953;28;20313;-72
2024/04/01 07:24:27;;;;;;;;;;;18.50;55.70;;;;;;5052694;28;19913;-72
2024/04/01 07:26:53;;;;;;;;;;;18.80;55.10;;;;;;5063616;28;19925;-76
2024/04/01 07:29:19;;;;;;;;;;;18.90;54.50;;;;;;5061975;28;19927;-72
2024/04/01 07:31:46;;;;;;;;;;;19.20;53.90;;;;;;5061050;28;19965;-76
2024/04/01 07:34:12;;;;;;;;;;;19.50;53.80;;;;;;5055380;28;20358;-77
2024/04/01 07:36:38;;;;;;;;;;;19.80;53.70;;;;;;5065490;28;19923;-77
2024/04/01 07:39:04;;;;;;;;;;;20.10;53.50;;;;;;5071048;28;19924;-76
2024/04/01 07:41:30;;;;;;;;;;;20.40;53.00;;;;;;5070389;28;20361;-77
2024/04/01 07:43:56;;;;;;;;;;;20.70;52.50;;;;;;5072275;28;20011;-76
2024/04/01 07:46:22;;;;;;;;;;;21.00;51.80;;;;;;5072091;28;20311;-71
2024/04/01 07:48:48;;;;;;;;;;;21.40;51.60;;;;;;5071073;28;19962;-77
2024/04/01 07:51:14;;;;;;;;;;;21.70;49.40;;;;;;5071918;28;19989;-73
2024/04/01 07:53:40;;;;;;;;;;;22.00;49.20;;;;;;5059390;28;19950;-76
2024/04/01 07:56:06;;;;;;;;;;;22.50;48.80;;;;;;5070405;28;19925;-76
2024/04/01 07:58:32;;;;;;;;;;;22.70;47.60;;;;;;5067520;28;19920;-77
2024/04/01 08:01:04;;;;;;;;;;;23.10;45.80;;;;;;5058658;28;20003;-72
2024/04/01 08:03:29;;;;;;;;;;;23.40;44.00;;;;;;5063567;28;19924;-72
2024/04/01 08:05:55;;;;;;;;;;;23.80;44.60;;;;;;5051180;28;20423;-77
2024/04/01 08:08:21;;;;;;;;;;;24.10;44.10;;;;;;5058156;28;20023;-72
2024/04/01 08:10:47;;;;;;;;;;;24.50;42.70;;;;;;5069976;28;19917;-72
2024/04/01 08:13:13;;;;;;;;;;;24.80;41.40;;;;;;5071215;28;19920;-77
2024/04/01 08:15:39;;;;;;;;;;;25.10;37.10;;;;;;5071750;28;20012;-77
2024/04/01 08:18:05;;;;;;;;;;;25.40;38.60;;;;;;5072187;28;19982;-77
2024/04/01 08:20:31;;;;;;;;;;;25.60;36.20;;;;;;5068977;28;20227;-77
2024/04/01 08:22:57;;;;;;;;;;;26.10;37.20;;;;;;5052997;28;19928;-77
2024/04/01 08:25:23;;;;;;;;;;;26.50;36.30;;;;;;5061051;28;19917;-72
2024/04/01 08:27:49;;;;;;;;;;;26.80;34.60;;;;;;5051887;28;19925;-78
2024/04/01 08:30:16;;;;;;;;;;;27.10;34.20;;;;;;5068366;28;19916;-77
2024/04/01 08:32:42;;;;;;;;;;;27.10;30.00;;;;;;5071823;28;20081;-72
2024/04/01 08:35:07;;;;;;;;;;;27.20;27.20;;;;;;5068493;28;19972;-77
2024/04/01 08:37:33;;;;;;;;;;;27.30;27.80;;;;;;5051703;28;19925;-73
2024/04/01 08:39:59;;;;;;;;;;;27.60;28.00;;;;;;5054305;28;19927;-72
2024/04/01 08:42:26;;;;;;;;;;;27.80;26.20;;;;;;5049616;28;20015;-73
2024/04/01 08:44:53;;;;;;;;;;;28.20;25.90;;;;;;5033355;28;19920;-73
2024/04/01 08:47:19;;;;;;;;;;;28.80;26.20;;;;;;5050235;28;19925;-76
2024/04/01 08:50:02;;;;;;;;;;;29.30;26.40;;;;;;5033423;28;19959;-76
2024/04/01 08:52:34;;;;;;;;;;;29.90;25.70;;;;;;5051193;28;20008;-76
2024/04/01 08:55:00;;;;;;;;;;;30.20;23.80;;;;;;5050142;28;20007;-75
2024/04/01 08:57:27;;;;;;;;;;;30.50;24.00;;;;;;5052354;28;19943;-73
2024/04/01 08:59:53;;;;;;;;;;;30.70;23.70;;;;;;5048011;28;19920;-76
2024/04/01 09:02:18;;;;;;;;;;;30.90;22.40;;;;;;5049465;28;20366;-73
2024/04/01 09:04:45;;;;;;;;;;;31.20;23.30;;;;;;5063404;28;19912;-73
2024/04/01 09:07:14;;;;;;;;;;;31.50;21.60;;;;;;5052917;28;20003;-73
2024/04/01 09:09:40;;;;;;;;;;;31.80;21.40;;;;;;5053727;28;19912;-73
2024/04/01 09:12:26;;;;;;;;;;;32.40;21.80;;;;;;5069277;28;19928;-73
2024/04/01 09:14:52;;;;;;;;;;;33.10;20.60;;;;;;5069699;28;20009;-75
2024/04/01 09:17:37;;;;;;;;;;;33.30;21.00;;;;;;5069730;28;20022;-74
2024/04/01 09:20:04;;;;;;;;;;;33.60;19.90;;;;;;5069341;28;19956;-76
2024/04/01 09:22:33;;;;;;;;;;;33.90;18.70;;;;;;5069892;28;19928;-76
2024/04/01 09:25:00;;;;;;;;;;;34.30;19.50;;;;;;5070980;28;19927;-74
2024/04/01 09:27:25;;;;;;;;;;;34.50;19.40;;;;;;5071140;28;19916;-74
2024/04/01 09:29:52;;;;;;;;;;;35.00;18.90;;;;;;5070965;28;19970;-74
2024/04/01 09:32:18;;;;;;;;;;;35.00;18.00;;;;;;5069246;28;19935;-75
2024/04/01 09:34:44;;;;;;;;;;;35.30;18.40;;;;;;5069645;28;19926;-74
2024/04/01 09:37:10;;;;;;;;;;;35.90;17.30;;;;;;5054048;28;20293;-74
2024/04/01 09:39:37;;;;;;;;;;;36.40;17.80;;;;;;5073443;28;19927;-76
2024/04/01 09:42:03;;;;;;;;;;;36.90;17.10;;;;;;5074063;28;19917;-76
2024/04/01 09:44:48;;;;;;;;;;;37.70;16.30;;;;;;5073249;28;19920;-73
2024/04/01 09:47:15;;;;;;;;;;;37.50;15.70;;;;;;5073323;28;19924;-75
2024/04/01 09:49:43;;;;;;;;;;;37.50;15.70;;;;;;5073206;28;19924;-74
2024/04/01 09:52:09;;;;;;;;;;;37.40;13.10;;;;;;5056042;28;19920;-73
2024/04/01 09:54:37;;;;;;;;;;;37.50;13.20;;;;;;5072908;28;19982;-72
2024/04/01 09:57:36;;;;;;;;;;;37.70;12.00;;;;;;5072808;28;19917;-72
2024/04/01 10:00:18;;;;;;;;;;;37.80;12.80;;;;;;5063474;28;19970;-73
2024/04/01 10:03:06;;;;;;;;;;;37.60;11.20;;;;;;5061005;28;19967;-73
2024/04/01 10:05:38;;;;;;;;;;;37.70;12.00;;;;;;5064404;28;19917;-74
2024/04/01 10:08:19;;;;;;;;;;;37.90;12.50;;;;;;5072727;28;20266;-74
2024/04/01 10:11:26;;;;;;;;;;;38.00;11.80;;;;;;5072475;28;19924;-74
2024/04/01 10:14:32;;;;;;;;;;;38.00;12.30;;;;;;5074005;28;19924;-75
2024/04/01 10:17:12;;;;;;;;;;;37.90;11.40;;;;;;5072487;28;20420;-74
2024/04/01 10:20:16;;;;;;;;;;;37.90;11.20;;;;;;5072679;28;19927;-75
2024/04/01 10:23:19;;;;;;;;;;;37.90;11.70;;;;;;5073733;28;19970;-75
2024/04/01 10:26:19;;;;;;;;;;;38.30;12.30;;;;;;5073624;28;19916;-74
2024/04/01 10:29:10;;;;;;;;;;;38.30;10.80;;;;;;5073941;28;19922;-75
2024/04/01 10:32:14;;;;;;;;;;;38.30;11.40;;;;;;5073081;28;19931;-75
2024/04/01 10:34:59;;;;;;;;;;;38.20;11.40;;;;;;5072176;28;20278;-75
2024/04/01 10:37:44;;;;;;;;;;;38.10;11.80;;;;;;5073443;28;19919;-74
2024/04/01 10:40:52;;;;;;;;;;;38.20;11.50;;;;;;5072816;28;19920;-74
2024/04/01 10:43:55;;;;;;;;;;;38.70;11.50;;;;;;5072263;28;19999;-75
2024/04/01 10:46:34;;;;;;;;;;;39.00;11.20;;;;;;5073138;28;19927;-75
2024/04/01 10:49:22;;;;;;;;;;;39.70;10.80;;;;;;5072894;28;19930;-75
2024/04/01 10:52:21;;;;;;;;;;;39.90;10.40;;;;;;5070541;28;19955;-76
2024/04/01 10:54:56;;;;;;;;;;;39.60;11.80;;;;;;5067070;28;19916;-76
2024/04/01 10:57:40;;;;;;;;;;;39.50;11.70;;;;;;5053056;28;20163;-73
2024/04/01 11:00:25;;;;;;;;;;;40.00;12.50;;;;;;5067580;28;19924;-73
2024/04/01 11:03:28;;;;;;;;;;;40.30;11.10;;;;;;5072003;28;19952;-76
2024/04/01 11:06:12;;;;;;;;;;;40.40;11.60;;;;;;5072849;28;19916;-74
2024/04/01 11:09:16;;;;;;;;;;;40.70;10.70;;;;;;5072658;28;20366;-77
2024/04/01 11:12:00;;;;;;;;;;;40.70;10.50;;;;;;5071450;28;20207;-77
2024/04/01 11:14:27;;;;;;;;;;;40.50;11.00;;;;;;5060883;28;20332;-74
2024/04/01 11:16:54;;;;;;;;;;;40.70;10.00;;;;;;5071103;28;19920;-74
2024/04/01 11:19:58;;;;;;;;;;;40.80;9.80;;;;;;5063854;28;19924;-73
2024/04/01 11:22:39;;;;;;;;;;;40.70;9.20;;;;;;5052478;28;19920;-72
2024/04/01 11:25:44;;;;;;;;;;;40.90;8.90;;;;;;5070190;28;19958;-74
2024/04/01 11:28:47;;;;;;;;;;;41.10;10.90;;;;;;5073053;28;19924;-73
2024/04/01 11:31:32;;;;;;;;;;;41.20;9.40;;;;;;5072309;28;20388;-74
2024/04/01 11:34:17;;;;;;;;;;;41.00;9.30;;;;;;5069566;28;20374;-73
2024/04/01 11:37:02;;;;;;;;;;;41.00;9.60;;;;;;5061935;28;19920;-74
2024/04/01 11:39:29;;;;;;;;;;;41.10;9.30;;;;;;5072421;28;19916;-73
2024/04/01 11:41:55;;;;;;;;;;;41.50;9.40;;;;;;5057840;28;19921;-73
2024/04/01 11:44:24;;;;;;;;;;;41.50;9.60;;;;;;5051375;28;19916;-73
2024/04/01 11:46:51;;;;;;;;;;;41.00;10.60;;;;;;5055316;28;19928;-76
2024/04/01 11:49:17;;;;;;;;;;;41.00;9.80;;;;;;5068684;28;19916;-76
2024/04/01 11:51:43;;;;;;;;;;;41.40;9.30;;;;;;5061989;28;19920;-73
2024/04/01 11:54:09;;;;;;;;;;;41.60;9.70;;;;;;5050815;28;19943;-76
2024/04/01 11:56:42;;;;;;;;;;;41.00;9.60;;;;;;5055580;28;20373;-73
2024/04/01 11:59:09;;;;;;;;;;;41.20;9.20;;;;;;5053651;28;19961;-77
2024/04/01 12:01:38;;;;;;;;;;;41.10;8.50;;;;;;5070022;28;20373;-76
2024/04/01 12:04:05;;;;;;;;;;;40.50;8.80;;;;;;5034906;28;20016;-73
2024/04/01 12:06:33;;;;;;;;;;;40.60;8.80;;;;;;5050799;28;19912;-75
2024/04/01 12:09:01;;;;;;;;;;;40.60;9.30;;;;;;5052001;28;19917;-76
2024/04/01 12:11:28;;;;;;;;;;;40.20;11.40;;;;;;5066817;28;20147;-74
2024/04/01 12:13:55;;;;;;;;;;;40.10;12.60;;;;;;5050762;28;19916;-73
2024/04/01 12:16:22;;;;;;;;;;;39.80;11.00;;;;;;5058957;28;19913;-76
2024/04/01 12:18:50;;;;;;;;;;;39.40;11.50;;;;;;5070434;28;19923;-73
2024/04/01 12:21:23;;;;;;;;;;;39.50;12.20;;;;;;5069623;28;19923;-75
2024/04/01 12:24:07;;;;;;;;;;;39.70;11.70;;;;;;5070485;28;19962;-73
2024/04/01 12:26:52;;;;;;;;;;;39.80;11.40;;;;;;5070298;28;20003;-75
2024/04/01 12:29:22;;;;;;;;;;;39.80;10.80;;;;;;5071696;28;19966;-75
2024/04/01 12:31:51;;;;;;;;;;;40.30;10.60;;;;;;5071172;28;19916;-76
2024/04/01 12:34:17;;;;;;;;;;;41.40;11.30;;;;;;5053638;28;19916;-73
2024/04/01 12:36:46;;;;;;;;;;;41.20;9.70;;;;;;5070524;28;19956;-76
2024/04/01 12:39:13;;;;;;;;;;;41.10;10.90;;;;;;5070311;28;19962;-72
2024/04/01 12:41:40;;;;;;;;;;;40.80;10.00;;;;;;5069612;28;19921;-76
2024/04/01 12:44:07;;;;;;;;;;;41.10;10.10;;;;;;5070068;28;19999;-75
2024/04/01 12:46:52;;;;;;;;;;;41.20;10.70;;;;;;5053159;28;19912;-74
2024/04/01 12:49:21;;;;;;;;;;;41.70;9.70;;;;;;5071520;28;19921;-73
2024/04/01 12:51:48;;;;;;;;;;;41.70;9.60;;;;;;5069490;28;19922;-74
2024/04/01 12:54:51;;;;;;;;;;;41.40;10.50;;;;;;5071405;28;19922;-76
2024/04/01 12:57:17;;;;;;;;;;;41.40;11.00;;;;;;5071361;28;19921;-76
2024/04/01 13:00:04;;;;;;;;;;;41.80;9.90;;;;;;5069768;28;19958;-74
2024/04/01 13:02:57;;;;;;;;;;;41.30;9.10;;;;;;5071187;28;19924;-76
2024/04/01 13:05:31;;;;;;;;;;;40.60;9.20;;;;;;5071350;28;19962;-73
2024/04/01 13:08:15;;;;;;;;;;;40.10;9.40;;;;;;5071680;28;20277;-76
2024/04/01 13:11:18;;;;;;;;;;;39.60;8.40;;;;;;5070754;28;19927;-73
2024/04/01 13:14:02;;;;;;;;;;;39.00;10.50;;;;;;5075637;28;19920;-73
2024/04/01 13:16:57;;;;;;;;;;;39.00;9.90;;;;;;5073829;28;19912;-76
2024/04/01 13:19:29;;;;;;;;;;;39.10;9.60;;;;;;5075154;28;20376;-76
2024/04/01 13:22:01;;;;;;;;;;;38.70;9.80;;;;;;5074693;28;19920;-73
2024/04/01 13:24:31;;;;;;;;;;;38.30;9.80;;;;;;5075023;28;19912;-76
2024/04/01 13:27:34;;;;;;;;;;;38.10;10.30;;;;;;5056800;28;19990;-76
2024/04/01 13:30:20;;;;;;;;;;;38.20;10.20;;;;;;5074804;28;19916;-76
2024/04/01 13:33:04;;;;;;;;;;;38.10;10.60;;;;;;5073287;28;19955;-72
2024/04/01 13:35:39;;;;;;;;;;;37.90;10.00;;;;;;5073526;28;19916;-76
2024/04/01 13:38:27;;;;;;;;;;;37.70;10.30;;;;;;5073648;28;19920;-73
2024/04/01 13:41:20;;;;;;;;;;;37.50;10.50;;;;;;5056189;28;20411;-73
2024/04/01 13:44:16;;;;;;;;;;;37.50;10.40;;;;;;5074558;28;19967;-76
2024/04/01 13:47:00;;;;;;;;;;;37.30;10.80;;;;;;5074439;28;19917;-73
2024/04/01 13:49:41;;;;;;;;;;;37.50;10.80;;;;;;5074668;28;20416;-73
2024/04/01 13:52:33;;;;;;;;;;;37.30;10.80;;;;;;5074132;28;19916;-74
2024/04/01 13:55:21;;;;;;;;;;;36.90;10.60;;;;;;5073142;28;19916;-73
2024/04/01 13:58:05;;;;;;;;;;;36.70;10.50;;;;;;5073133;28;19920;-73
2024/04/01 14:00:50;;;;;;;;;;;36.60;12.10;;;;;;5073660;28;19996;-73
2024/04/01 14:03:53;;;;;;;;;;;36.80;10.80;;;;;;5074841;28;19952;-73
2024/04/01 14:06:29;;;;;;;;;;;36.50;11.80;;;;;;5074199;28;19913;-73
2024/04/01 14:09:03;;;;;;;;;;;36.40;11.80;;;;;;5072863;28;20301;-73
2024/04/01 14:11:44;;;;;;;;;;;36.20;11.50;;;;;;5072294;28;19916;-73
2024/04/01 14:14:10;;;;;;;;;;;35.70;13.00;;;;;;5074055;28;19970;-73
2024/04/01 14:16:58;;;;;;;;;;;35.30;11.80;;;;;;5072531;28;19969;-73
2024/04/01 14:19:55;;;;;;;;;;;35.00;13.40;;;;;;5072612;28;19920;-76
2024/04/01 14:22:21;;;;;;;;;;;35.50;12.40;;;;;;5071486;28;20369;-73
2024/04/01 14:25:06;;;;;;;;;;;35.00;12.40;;;;;;5072560;28;20007;-76
2024/04/01 14:27:33;;;;;;;;;;;34.60;12.50;;;;;;5072617;28;19925;-73
2024/04/01 14:29:59;;;;;;;;;;;34.10;12.90;;;;;;5072469;28;19919;-76
2024/04/01 14:32:25;;;;;;;;;;;33.80;13.20;;;;;;5071997;28;19920;-73
2024/04/01 14:34:52;;;;;;;;;;;34.20;14.70;;;;;;5072203;28;19916;-74
2024/04/01 14:37:18;;;;;;;;;;;34.30;14.50;;;;;;5072218;28;19920;-77
2024/04/01 14:39:45;;;;;;;;;;;33.90;13.70;;;;;;5073424;28;19919;-74
2024/04/01 14:42:11;;;;;;;;;;;33.80;13.60;;;;;;5071730;28;20426;-73
2024/04/01 14:44:37;;;;;;;;;;;33.50;13.70;;;;;;5073335;28;19923;-77